createdAt,value
2022-12-18T00:01:24.687Z,86.64
2022-12-18T00:03:51.209Z,86.66
2022-12-18T00:06:17.622Z,86.92
2022-12-18T00:08:43.937Z,87.77
2022-12-18T00:11:10.259Z,89.31
2022-12-18T00:13:37.026Z,88.80
2022-12-18T00:16:03.762Z,86.69
2022-12-18T00:18:30.144Z,87.32
2022-12-18T00:20:56.451Z,87.35
2022-12-18T00:23:22.772Z,87.81
2022-12-18T00:25:49.083Z,89.25
2022-12-18T00:28:15.415Z,88.78
2022-12-18T00:30:41.743Z,89.00
2022-12-18T00:33:08.069Z,89.62
2022-12-18T00:35:34.429Z,88.49
2022-12-18T00:38:00.752Z,86.72
2022-12-18T00:40:27.067Z,86.47
2022-12-18T00:42:56.536Z,87.03
2022-12-18T00:45:22.885Z,87.84
2022-12-18T00:47:49.343Z,87.33
2022-12-18T00:50:15.641Z,86.78
2022-12-18T00:52:41.997Z,86.09
2022-12-18T00:55:08.316Z,86.06
2022-12-18T00:57:34.653Z,86.53
2022-12-18T01:00:00.974Z,86.59
2022-12-18T01:02:27.523Z,87.01
2022-12-18T01:04:54.259Z,87.52
2022-12-18T01:07:20.595Z,87.57
2022-12-18T01:09:46.905Z,87.19
2022-12-18T01:12:13.257Z,85.84
2022-12-18T01:14:39.601Z,85.70
2022-12-18T01:17:05.920Z,87.47
2022-12-18T01:19:32.237Z,87.73
2022-12-18T01:21:58.646Z,87.42
2022-12-18T01:24:24.949Z,86.67
2022-12-18T01:26:51.266Z,86.64
2022-12-18T01:29:17.578Z,86.96
2022-12-18T01:31:43.946Z,86.75
2022-12-18T01:34:10.379Z,87.37
2022-12-18T01:36:36.693Z,87.19
2022-12-18T01:39:03.052Z,86.89
2022-12-18T01:41:52.442Z,87.06
2022-12-18T01:44:18.750Z,86.95
2022-12-18T01:46:45.064Z,86.29
2022-12-18T01:49:11.383Z,86.01
2022-12-18T01:51:37.746Z,86.29
2022-12-18T01:54:04.304Z,87.42
2022-12-18T01:56:30.613Z,86.95
2022-12-18T01:58:56.928Z,86.63
2022-12-18T02:01:23.340Z,86.49
2022-12-18T02:03:49.755Z,86.76
2022-12-18T02:06:16.072Z,86.79
2022-12-18T02:08:42.405Z,86.22
2022-12-18T02:11:08.709Z,86.45
2022-12-18T02:13:35.328Z,86.29
2022-12-18T02:16:01.797Z,86.06
2022-12-18T02:18:28.138Z,86.21
2022-12-18T02:20:54.457Z,85.81
2022-12-18T02:23:20.798Z,85.19
2022-12-18T02:25:47.115Z,86.50
2022-12-18T02:28:13.422Z,87.59
2022-12-18T02:30:39.828Z,87.89
2022-12-18T02:33:07.815Z,87.43
2022-12-18T02:35:34.195Z,87.14
2022-12-18T02:38:00.547Z,86.63
2022-12-18T02:40:26.871Z,86.70
2022-12-18T02:42:53.177Z,86.11
2022-12-18T02:45:19.498Z,85.95
2022-12-18T02:47:45.807Z,85.58
2022-12-18T02:50:12.190Z,84.65
2022-12-18T02:52:38.508Z,84.93
2022-12-18T02:55:04.834Z,85.13
2022-12-18T02:57:31.153Z,85.42
2022-12-18T02:59:57.473Z,85.46
2022-12-18T03:02:24.010Z,85.66
2022-12-18T03:04:50.595Z,85.51
2022-12-18T03:07:16.945Z,85.61
2022-12-18T03:09:43.258Z,85.17
2022-12-18T03:12:24.959Z,85.09
2022-12-18T03:14:51.263Z,85.11
2022-12-18T03:17:17.598Z,84.84
2022-12-18T03:19:43.967Z,84.66
2022-12-18T03:22:10.286Z,85.50
2022-12-18T03:24:38.443Z,85.88
2022-12-18T03:27:04.779Z,85.37
2022-12-18T03:29:31.113Z,86.75
2022-12-18T03:31:57.436Z,86.88
2022-12-18T03:34:23.760Z,86.27
2022-12-18T03:36:50.082Z,85.90
2022-12-18T03:39:16.413Z,85.36
2022-12-18T03:41:42.735Z,85.77
2022-12-18T03:44:09.066Z,85.62
2022-12-18T03:46:35.384Z,86.15
2022-12-18T03:49:01.715Z,86.07
2022-12-18T03:51:28.027Z,86.04
2022-12-18T03:53:54.349Z,85.74
2022-12-18T03:56:20.688Z,85.45
2022-12-18T03:58:47.020Z,86.33
2022-12-18T04:01:13.583Z,86.38
2022-12-18T04:03:40.441Z,86.50
2022-12-18T04:06:07.103Z,86.35
2022-12-18T04:08:33.423Z,85.67
2022-12-18T04:10:59.751Z,84.88
2022-12-18T04:13:26.066Z,84.53
2022-12-18T04:15:52.471Z,84.00
2022-12-18T04:18:18.834Z,84.05
2022-12-18T04:20:45.164Z,83.69
2022-12-18T04:23:11.486Z,84.09
2022-12-18T04:25:37.800Z,84.18
2022-12-18T04:28:04.129Z,84.36
2022-12-18T04:30:30.444Z,83.87
2022-12-18T04:32:56.774Z,83.50
2022-12-18T04:35:23.104Z,84.05
2022-12-18T04:37:49.441Z,84.81
2022-12-18T04:40:15.739Z,85.06
2022-12-18T04:42:45.261Z,84.61
2022-12-18T04:45:11.591Z,84.35
2022-12-18T04:47:37.922Z,84.04
2022-12-18T04:50:04.239Z,84.94
2022-12-18T04:52:30.574Z,85.25
2022-12-18T04:54:56.890Z,84.37
2022-12-18T04:57:23.502Z,83.90
2022-12-18T04:59:49.815Z,84.06
2022-12-18T05:02:16.285Z,83.81
2022-12-18T05:04:42.681Z,83.85
2022-12-18T05:07:08.994Z,83.54
2022-12-18T05:09:35.320Z,82.90
2022-12-18T05:12:01.639Z,83.38
2022-12-18T05:14:30.219Z,83.44
2022-12-18T05:17:00.711Z,83.99
2022-12-18T05:19:27.462Z,84.28
2022-12-18T05:21:53.765Z,84.49
2022-12-18T05:24:20.306Z,83.69
2022-12-18T05:26:46.612Z,83.20
2022-12-18T05:29:13.405Z,83.40
2022-12-18T05:31:40.543Z,83.98
2022-12-18T05:34:08.530Z,84.14
2022-12-18T05:36:34.844Z,83.88
2022-12-18T05:39:01.403Z,83.50
2022-12-18T05:41:27.731Z,83.48
2022-12-18T05:43:54.049Z,82.90
2022-12-18T05:46:20.415Z,83.54
2022-12-18T05:48:46.771Z,84.19
2022-12-18T05:51:13.104Z,84.43
2022-12-18T05:53:39.942Z,83.38
2022-12-18T05:56:06.764Z,83.05
2022-12-18T05:58:33.096Z,82.21
2022-12-18T06:00:59.412Z,82.59
2022-12-18T06:03:30.663Z,82.84
2022-12-18T06:05:59.946Z,83.46
2022-12-18T06:08:26.268Z,83.48
2022-12-18T06:10:53.730Z,83.55
2022-12-18T06:13:20.043Z,83.41
2022-12-18T06:15:46.515Z,83.28
2022-12-18T06:18:12.930Z,83.11
2022-12-18T06:20:40.875Z,83.51
2022-12-18T06:23:07.229Z,84.09
2022-12-18T06:25:34.076Z,83.74
2022-12-18T06:28:00.408Z,83.67
2022-12-18T06:30:26.714Z,83.44
2022-12-18T06:32:56.701Z,83.06
2022-12-18T06:35:23.305Z,82.83
2022-12-18T06:37:49.617Z,82.32
2022-12-18T06:40:16.015Z,83.82
2022-12-18T06:42:42.335Z,84.79
2022-12-18T06:45:08.688Z,84.36
2022-12-18T06:47:35.180Z,83.46
2022-12-18T06:50:01.485Z,83.55
2022-12-18T06:52:27.793Z,82.73
2022-12-18T06:54:54.107Z,83.30
2022-12-18T06:57:20.441Z,83.53
2022-12-18T06:59:46.760Z,84.17
2022-12-18T07:02:13.896Z,83.93
2022-12-18T07:04:40.680Z,83.25
2022-12-18T07:07:07.316Z,83.06
2022-12-18T07:09:33.631Z,83.40
2022-12-18T07:11:59.967Z,83.34
2022-12-18T07:14:26.294Z,82.64
2022-12-18T07:16:52.662Z,83.31
2022-12-18T07:19:19.209Z,83.45
2022-12-18T07:21:45.549Z,83.25
2022-12-18T07:24:11.860Z,83.18
2022-12-18T07:26:38.355Z,83.06
2022-12-18T07:29:04.691Z,82.69
2022-12-18T07:31:31.125Z,83.04
2022-12-18T07:33:57.723Z,84.51
2022-12-18T07:36:24.038Z,84.68
2022-12-18T07:38:50.369Z,84.01
2022-12-18T07:41:16.767Z,83.18
2022-12-18T07:43:43.626Z,83.26
2022-12-18T07:46:10.416Z,84.21
2022-12-18T07:48:36.844Z,83.43
2022-12-18T07:51:03.840Z,82.51
2022-12-18T07:53:30.177Z,82.00
2022-12-18T07:56:25.387Z,82.19
2022-12-18T07:58:42.985Z,81.46
2022-12-18T08:01:09.747Z,82.14
2022-12-18T08:03:38.299Z,82.07
2022-12-18T08:06:04.907Z,81.62
2022-12-18T08:08:31.277Z,81.18
2022-12-18T08:10:57.595Z,81.77
2022-12-18T08:13:26.981Z,83.12
2022-12-18T08:15:53.315Z,83.54
2022-12-18T08:18:19.638Z,83.63
2022-12-18T08:20:45.982Z,82.46
2022-12-18T08:23:12.285Z,82.58
2022-12-18T08:25:38.615Z,82.88
2022-12-18T08:28:04.933Z,82.89
2022-12-18T08:30:31.373Z,83.74
2022-12-18T08:32:57.779Z,84.03
2022-12-18T08:35:24.149Z,83.74
2022-12-18T08:37:50.638Z,83.68
2022-12-18T08:40:16.942Z,83.63
2022-12-18T08:43:02.249Z,84.74
2022-12-18T08:45:28.555Z,84.73
2022-12-18T08:47:54.938Z,84.66
2022-12-18T08:50:21.297Z,83.03
2022-12-18T08:52:47.612Z,82.49
2022-12-18T08:55:14.725Z,82.11
2022-12-18T08:57:41.038Z,82.12
2022-12-18T09:00:07.346Z,81.38
2022-12-18T09:02:33.898Z,82.01
2022-12-18T09:05:00.359Z,82.61
2022-12-18T09:07:26.764Z,83.62
2022-12-18T09:09:53.125Z,83.21
2022-12-18T09:12:19.504Z,83.35
2022-12-18T09:14:45.828Z,85.09
2022-12-18T09:17:12.332Z,83.54
2022-12-18T09:19:38.738Z,82.94
2022-12-18T09:22:05.058Z,82.88
2022-12-18T09:24:31.520Z,83.01
2022-12-18T09:26:58.216Z,83.37
2022-12-18T09:29:24.601Z,82.75
2022-12-18T09:31:50.917Z,81.94
2022-12-18T09:34:17.814Z,83.92
2022-12-18T09:36:44.375Z,84.05
2022-12-18T09:39:10.716Z,83.89
2022-12-18T09:41:37.082Z,82.98
2022-12-18T09:44:03.432Z,82.74
2022-12-18T09:46:29.797Z,83.10
2022-12-18T09:48:56.161Z,82.73
2022-12-18T09:51:22.500Z,82.38
2022-12-18T09:53:48.847Z,82.00
2022-12-18T09:56:15.198Z,81.73
2022-12-18T09:58:41.885Z,82.13
2022-12-18T10:01:08.594Z,81.15
2022-12-18T10:03:34.931Z,81.54
2022-12-18T10:06:01.361Z,81.23
2022-12-18T10:08:27.686Z,80.74
2022-12-18T10:10:54.090Z,80.15
2022-12-18T10:13:20.415Z,80.26
2022-12-18T10:15:49.028Z,80.36
2022-12-18T10:18:20.270Z,79.79
2022-12-18T10:20:48.324Z,79.35
2022-12-18T10:23:14.718Z,80.15
2022-12-18T10:25:41.144Z,79.51
2022-12-18T10:28:07.465Z,79.50
2022-12-18T10:30:33.784Z,79.06
2022-12-18T10:33:00.133Z,78.71
2022-12-18T10:35:26.578Z,78.25
2022-12-18T10:37:52.909Z,78.02
2022-12-18T10:40:22.642Z,78.05
2022-12-18T10:42:49.153Z,77.55
2022-12-18T10:45:15.553Z,76.61
2022-12-18T10:47:43.434Z,75.85
2022-12-18T10:50:09.745Z,75.93
2022-12-18T10:52:38.664Z,76.76
2022-12-18T10:55:08.384Z,76.64
2022-12-18T10:57:34.751Z,76.18
2022-12-18T11:00:01.080Z,75.88
2022-12-18T11:02:27.830Z,75.34
2022-12-18T11:04:54.231Z,75.72
2022-12-18T11:07:20.533Z,74.88
2022-12-18T11:09:46.856Z,73.88
2022-12-18T11:12:13.179Z,74.90
2022-12-18T11:14:44.993Z,75.06
2022-12-18T11:17:28.185Z,73.88
2022-12-18T11:19:54.682Z,74.07
2022-12-18T11:22:21.375Z,74.18
2022-12-18T11:25:08.350Z,74.56
2022-12-18T11:27:34.207Z,74.62
2022-12-18T11:30:00.524Z,74.91
2022-12-18T11:32:26.881Z,74.43
2022-12-18T11:34:58.783Z,74.12
2022-12-18T11:37:26.798Z,73.89
2022-12-18T11:39:53.613Z,74.12
2022-12-18T11:42:19.934Z,72.92
2022-12-18T11:44:46.250Z,73.20
2022-12-18T11:47:12.572Z,73.15
2022-12-18T11:49:40.231Z,73.72
2022-12-18T11:52:06.564Z,74.21
2022-12-18T11:54:32.905Z,75.00
2022-12-18T11:56:59.221Z,74.16
2022-12-18T11:59:26.792Z,75.04
2022-12-18T12:01:53.561Z,74.91
2022-12-18T12:04:20.022Z,75.34
2022-12-18T12:06:46.481Z,75.67
2022-12-18T12:09:12.783Z,76.11
2022-12-18T12:11:39.094Z,76.35
2022-12-18T12:14:05.409Z,75.34
2022-12-18T12:16:31.777Z,75.81
2022-12-18T12:18:58.223Z,75.59
2022-12-18T12:21:24.744Z,75.60
2022-12-18T12:23:51.076Z,75.50
2022-12-18T12:26:17.374Z,76.29
2022-12-18T12:28:43.973Z,76.24
2022-12-18T12:31:10.442Z,75.90
2022-12-18T12:33:36.929Z,75.36
2022-12-18T12:36:03.355Z,74.58
2022-12-18T12:38:29.666Z,74.50
2022-12-18T12:41:02.394Z,75.11
2022-12-18T12:43:29.339Z,74.92
2022-12-18T12:45:56.155Z,74.82
2022-12-18T12:48:22.561Z,74.80
2022-12-18T12:50:48.933Z,74.64
2022-12-18T12:53:15.374Z,74.48
2022-12-18T12:55:43.005Z,75.16
2022-12-18T12:58:09.722Z,75.34
2022-12-18T13:00:36.047Z,75.53
2022-12-18T13:03:03.348Z,75.81
2022-12-18T13:05:30.168Z,75.64
2022-12-18T13:07:58.576Z,75.86
2022-12-18T13:10:27.177Z,76.52
2022-12-18T13:12:56.708Z,76.64
2022-12-18T13:15:23.079Z,76.46
2022-12-18T13:17:49.462Z,76.91
2022-12-18T13:20:17.244Z,76.93
2022-12-18T13:22:43.639Z,77.33
2022-12-18T13:25:10.162Z,77.26
2022-12-18T13:27:36.544Z,77.63
2022-12-18T13:30:02.863Z,78.04
2022-12-18T13:32:29.616Z,78.51
2022-12-18T13:34:55.962Z,79.15
2022-12-18T13:37:22.353Z,79.52
2022-12-18T13:39:48.734Z,79.32
2022-12-18T13:42:35.026Z,79.53
2022-12-18T13:45:01.601Z,79.85
2022-12-18T13:47:27.919Z,79.84
2022-12-18T13:49:54.317Z,79.62
2022-12-18T13:52:20.630Z,79.79
2022-12-18T13:54:47.004Z,80.06
2022-12-18T13:57:14.517Z,80.03
2022-12-18T13:59:42.808Z,80.12
2022-12-18T14:02:09.305Z,81.06
2022-12-18T14:04:35.878Z,81.38
2022-12-18T14:07:02.196Z,81.27
2022-12-18T14:09:28.587Z,81.93
2022-12-18T14:12:16.535Z,82.47
2022-12-18T14:14:42.946Z,82.15
2022-12-18T14:17:09.325Z,82.70
2022-12-18T14:19:35.949Z,82.75
2022-12-18T14:22:02.373Z,83.38
2022-12-18T14:24:29.789Z,83.24
2022-12-18T14:26:56.205Z,83.67
2022-12-18T14:29:22.650Z,83.75
2022-12-18T14:31:48.977Z,84.12
2022-12-18T14:34:16.926Z,84.74
2022-12-18T14:36:43.237Z,84.85
2022-12-18T14:39:09.553Z,85.15
2022-12-18T14:41:35.873Z,85.36
2022-12-18T14:44:02.184Z,85.40
2022-12-18T14:46:28.590Z,85.82
2022-12-18T14:48:55.211Z,85.89
2022-12-18T14:51:21.539Z,86.04
2022-12-18T14:53:54.554Z,86.32
2022-12-18T14:56:21.491Z,85.96
2022-12-18T14:58:48.460Z,86.51
2022-12-18T15:01:14.903Z,86.53
2022-12-18T15:03:41.619Z,86.59
2022-12-18T15:06:08.153Z,87.27
2022-12-18T15:08:34.481Z,87.02
2022-12-18T15:11:01.045Z,87.25
2022-12-18T15:13:28.409Z,87.69
2022-12-18T15:15:54.862Z,87.91
2022-12-18T15:18:22.143Z,87.98
2022-12-18T15:20:49.624Z,88.31
2022-12-18T15:23:16.266Z,88.18
2022-12-18T15:25:43.471Z,87.63
2022-12-18T15:28:09.802Z,87.75
2022-12-18T15:30:36.192Z,88.06
2022-12-18T15:33:02.533Z,88.33
2022-12-18T15:35:28.889Z,88.38
2022-12-18T15:37:55.208Z,88.15
2022-12-18T15:40:21.553Z,88.52
2022-12-18T15:43:06.796Z,88.43
2022-12-18T15:45:33.355Z,88.26
2022-12-18T15:47:59.720Z,88.51
2022-12-18T15:50:26.030Z,88.51
2022-12-18T15:52:53.343Z,88.50
2022-12-18T15:55:38.580Z,88.87
2022-12-18T15:58:05.832Z,89.07
2022-12-18T16:00:32.139Z,88.66
2022-12-18T16:02:58.677Z,89.11
2022-12-18T16:05:25.153Z,88.79
2022-12-18T16:07:51.493Z,88.96
2022-12-18T16:10:17.843Z,88.97
2022-12-18T16:12:44.158Z,88.90
2022-12-18T16:15:10.490Z,88.76
2022-12-18T16:17:36.837Z,88.90
2022-12-18T16:20:03.182Z,89.02
2022-12-18T16:22:29.688Z,88.88
2022-12-18T16:24:56.004Z,88.85
2022-12-18T16:27:22.369Z,88.72
2022-12-18T16:29:48.738Z,88.71
2022-12-18T16:32:15.123Z,88.89
2022-12-18T16:34:41.496Z,88.78
2022-12-18T16:37:07.835Z,88.95
2022-12-18T16:39:35.164Z,89.04
2022-12-18T16:42:01.941Z,89.09
2022-12-18T16:44:32.109Z,88.92
2022-12-18T16:47:02.849Z,89.16
2022-12-18T16:49:29.769Z,89.00
2022-12-18T16:51:56.082Z,88.56
2022-12-18T16:54:22.421Z,88.66
2022-12-18T16:56:50.501Z,88.59
2022-12-18T16:59:16.807Z,88.74
2022-12-18T17:01:44.206Z,88.29
2022-12-18T17:04:10.645Z,88.32
2022-12-18T17:06:37.064Z,88.46
2022-12-18T17:09:03.424Z,88.49
2022-12-18T17:11:29.742Z,88.42
2022-12-18T17:13:56.069Z,88.55
2022-12-18T17:16:24.528Z,88.38
2022-12-18T17:18:50.866Z,88.52
2022-12-18T17:21:17.233Z,88.33
2022-12-18T17:23:46.620Z,88.79
2022-12-18T17:26:12.942Z,89.02
2022-12-18T17:28:39.296Z,89.22
2022-12-18T17:31:05.696Z,89.12
2022-12-18T17:33:32.052Z,88.88
2022-12-18T17:35:58.370Z,88.95
2022-12-18T17:38:24.691Z,89.20
2022-12-18T17:40:51.019Z,89.11
2022-12-18T17:43:17.438Z,88.92
2022-12-18T17:45:43.886Z,88.98
2022-12-18T17:48:10.213Z,89.09
2022-12-18T17:50:36.534Z,89.10
2022-12-18T17:53:02.871Z,89.00
2022-12-18T17:55:29.270Z,88.73
2022-12-18T17:57:55.579Z,88.89
2022-12-18T18:00:22.146Z,88.95
2022-12-18T18:02:48.632Z,88.76
2022-12-18T18:05:15.092Z,88.49
2022-12-18T18:07:42.712Z,88.15
2022-12-18T18:10:09.087Z,88.23
2022-12-18T18:12:54.212Z,88.10
2022-12-18T18:15:20.527Z,88.02
2022-12-18T18:17:46.838Z,87.94
2022-12-18T18:20:20.699Z,87.82
2022-12-18T18:22:48.763Z,87.82
2022-12-18T18:25:15.104Z,87.76
2022-12-18T18:27:41.643Z,87.70
2022-12-18T18:30:08.103Z,87.49
2022-12-18T18:32:37.987Z,87.19
2022-12-18T18:35:04.599Z,87.02
2022-12-18T18:37:30.906Z,86.78
2022-12-18T18:39:57.296Z,86.60
2022-12-18T18:42:23.625Z,86.48
2022-12-18T18:44:49.950Z,86.33
2022-12-18T18:47:16.276Z,86.52
2022-12-18T18:49:42.598Z,86.27
2022-12-18T18:52:08.921Z,86.20
2022-12-18T18:54:35.342Z,86.21
2022-12-18T18:59:48.106Z,85.99
2022-12-18T19:02:14.557Z,86.15
2022-12-18T19:04:44.957Z,86.04
2022-12-18T19:07:12.803Z,86.36
2022-12-18T19:09:40.862Z,86.35
2022-12-18T19:12:26.069Z,85.99
2022-12-18T19:14:52.537Z,86.07
2022-12-18T19:17:18.857Z,85.96
2022-12-18T19:19:45.463Z,86.09
2022-12-18T19:22:11.959Z,85.99
2022-12-18T19:24:38.377Z,86.16
2022-12-18T19:27:04.919Z,86.32
2022-12-18T19:29:31.432Z,86.21
2022-12-18T19:31:57.790Z,86.05
2022-12-18T19:34:24.235Z,86.06
2022-12-18T19:36:53.899Z,85.75
2022-12-18T19:39:24.524Z,85.70
2022-12-18T19:41:52.599Z,85.56
2022-12-18T19:44:18.925Z,85.45
2022-12-18T19:46:46.283Z,85.47
2022-12-18T19:49:13.644Z,85.47
2022-12-18T19:51:44.634Z,85.67
2022-12-18T19:54:16.355Z,85.51
2022-12-18T19:56:43.437Z,85.15
2022-12-18T19:59:09.747Z,84.79
2022-12-18T20:01:36.358Z,85.05
2022-12-18T20:04:02.952Z,84.70
2022-12-18T20:06:32.780Z,84.81
2022-12-18T20:08:59.572Z,84.74
2022-12-18T20:11:27.097Z,84.33
2022-12-18T20:13:53.429Z,84.45
2022-12-18T20:16:19.868Z,84.21
2022-12-18T20:18:46.302Z,84.50
2022-12-18T20:21:14.212Z,84.42
2022-12-18T20:23:41.149Z,84.07
2022-12-18T20:26:08.624Z,84.25
2022-12-18T20:28:35.138Z,84.17
2022-12-18T20:31:01.539Z,84.11
2022-12-18T20:33:28.155Z,83.98
2022-12-18T20:35:54.469Z,83.80
2022-12-18T20:38:21.659Z,83.66
2022-12-18T20:40:49.957Z,83.72
2022-12-18T20:43:17.469Z,83.49
2022-12-18T20:45:44.012Z,83.23
2022-12-18T20:48:12.192Z,83.39
2022-12-18T20:50:38.514Z,83.01
2022-12-18T20:53:04.904Z,82.92
2022-12-18T20:55:31.281Z,82.78
2022-12-18T20:57:58.171Z,82.70
2022-12-18T21:00:24.488Z,82.40
2022-12-18T21:02:50.984Z,82.30
2022-12-18T21:05:17.365Z,82.58
2022-12-18T21:07:43.787Z,82.53
2022-12-18T21:10:10.111Z,82.29
2022-12-18T21:12:58.735Z,82.11
2022-12-18T21:15:28.929Z,82.29
2022-12-18T21:17:55.519Z,82.36
2022-12-18T21:20:21.835Z,82.14
2022-12-18T21:22:49.520Z,81.82
2022-12-18T21:25:15.937Z,81.85
2022-12-18T21:27:42.290Z,81.94
2022-12-18T21:30:08.628Z,82.27
2022-12-18T21:32:34.940Z,82.07
2022-12-18T21:35:01.257Z,82.01
2022-12-18T21:37:27.583Z,82.36
2022-12-18T21:39:53.901Z,82.60
2022-12-18T21:42:39.174Z,82.53
2022-12-18T22:02:01.026Z,83.23
2022-12-18T22:04:27.436Z,83.21
2022-12-18T22:06:54.547Z,82.93
2022-12-18T22:09:21.011Z,82.87
2022-12-18T22:11:47.335Z,83.12
2022-12-18T22:14:14.813Z,82.86
2022-12-18T22:16:41.239Z,82.87
2022-12-18T22:19:08.647Z,83.22
2022-12-18T22:21:35.130Z,83.09
2022-12-18T22:24:01.433Z,83.09
2022-12-18T22:26:27.771Z,83.06
2022-12-18T22:29:12.844Z,83.29
2022-12-18T22:31:39.277Z,83.22
2022-12-18T22:34:05.675Z,83.51
2022-12-18T22:36:32.000Z,83.20
2022-12-18T22:38:58.329Z,82.95
2022-12-18T22:41:24.806Z,83.18
2022-12-18T22:43:51.162Z,83.18
2022-12-18T22:46:17.546Z,83.60
2022-12-18T22:48:43.937Z,83.45
2022-12-18T22:51:10.256Z,83.37
2022-12-18T22:53:36.691Z,83.41
2022-12-18T22:56:03.037Z,83.05
2022-12-18T22:58:29.603Z,82.70
2022-12-18T23:00:55.934Z,82.56
2022-12-18T23:03:22.271Z,82.45
2022-12-18T23:05:48.635Z,82.35
2022-12-18T23:08:16.470Z,82.41
2022-12-18T23:10:42.797Z,82.40
2022-12-18T23:13:09.152Z,82.37
2022-12-18T23:15:35.501Z,82.17
2022-12-18T23:18:01.988Z,82.05
2022-12-18T23:20:28.350Z,81.73
2022-12-18T23:22:54.684Z,81.47
2022-12-18T23:25:21.290Z,81.59
2022-12-18T23:27:47.707Z,81.78
2022-12-18T23:30:14.022Z,81.35
2022-12-18T23:32:40.416Z,81.33
2022-12-18T23:35:06.744Z,81.52
2022-12-18T23:37:58.302Z,81.01
2022-12-18T23:40:21.273Z,81.03
2022-12-18T23:42:47.604Z,81.10
2022-12-18T23:45:17.563Z,81.10
2022-12-18T23:47:44.765Z,80.95
2022-12-18T23:50:13.370Z,81.06
2022-12-18T23:52:40.121Z,81.07
2022-12-18T23:55:06.443Z,80.95
2022-12-18T23:57:32.800Z,81.54
2022-12-18T23:59:59.123Z,81.52
